createdAt,value
2018-05-26T00:00:56.174Z,20.60
2018-05-26T00:03:23.856Z,20.60
2018-05-26T00:05:52.235Z,20.60
2018-05-26T00:08:20.603Z,20.50
2018-05-26T00:10:49.171Z,20.50
2018-05-26T00:13:16.748Z,20.30
2018-05-26T00:15:44.351Z,20.40
2018-05-26T00:18:11.939Z,20.40
2018-05-26T00:20:39.534Z,20.30
2018-05-26T00:23:07.168Z,20.30
2018-05-26T00:25:34.789Z,20.20
2018-05-26T00:28:03.100Z,20.20
2018-05-26T00:30:30.684Z,20.10
2018-05-26T00:32:58.278Z,20.10
2018-05-26T00:35:25.897Z,20.00
2018-05-26T00:37:53.509Z,20.10
2018-05-26T00:40:21.123Z,19.90
2018-05-26T00:42:48.724Z,19.90
2018-05-26T00:45:16.348Z,20.00
2018-05-26T00:47:43.914Z,20.00
2018-05-26T00:50:11.543Z,20.00
2018-05-26T00:52:39.100Z,20.00
2018-05-26T00:55:07.490Z,20.00
2018-05-26T00:57:35.101Z,20.00
2018-05-26T01:00:02.672Z,20.00
2018-05-26T01:02:31.291Z,19.90
2018-05-26T01:04:58.887Z,19.90
2018-05-26T01:07:27.278Z,19.80
2018-05-26T01:09:54.903Z,19.80
2018-05-26T01:12:22.522Z,19.80
2018-05-26T01:14:50.153Z,19.90
2018-05-26T01:17:18.520Z,19.80
2018-05-26T01:19:46.089Z,19.80
2018-05-26T01:22:14.495Z,19.90
2018-05-26T01:24:42.143Z,19.90
2018-05-26T01:27:09.784Z,19.80
2018-05-26T01:29:38.154Z,19.70
2018-05-26T01:32:05.747Z,19.70
2018-05-26T01:34:33.327Z,19.70
2018-05-26T01:37:00.945Z,19.70
2018-05-26T01:39:29.305Z,19.70
2018-05-26T01:41:56.958Z,19.70
2018-05-26T01:44:24.543Z,19.60
2018-05-26T01:46:52.104Z,19.60
2018-05-26T01:49:19.767Z,19.50
2018-05-26T01:51:47.405Z,19.50
2018-05-26T01:54:15.008Z,19.40
2018-05-26T01:56:43.957Z,19.30
2018-05-26T01:59:11.542Z,19.30
2018-05-26T02:01:39.094Z,19.30
2018-05-26T02:04:06.703Z,19.30
2018-05-26T02:06:34.327Z,19.20
2018-05-26T02:09:02.714Z,19.20
2018-05-26T02:11:30.325Z,19.20
2018-05-26T02:13:57.925Z,19.20
2018-05-26T02:16:25.563Z,19.20
2018-05-26T02:18:53.228Z,19.20
2018-05-26T02:21:20.838Z,19.20
2018-05-26T02:23:48.458Z,19.10
2018-05-26T02:26:16.053Z,19.20
2018-05-26T02:28:43.772Z,19.20
2018-05-26T02:31:11.355Z,19.20
2018-05-26T02:33:39.723Z,19.10
2018-05-26T02:36:07.339Z,19.10
2018-05-26T02:38:34.937Z,19.10
2018-05-26T02:41:02.550Z,19.10
2018-05-26T02:43:30.143Z,19.10
2018-05-26T02:45:57.735Z,19.00
2018-05-26T02:48:26.114Z,19.00
2018-05-26T02:50:53.718Z,19.00
2018-05-26T02:53:21.302Z,19.00
2018-05-26T02:55:48.974Z,19.00
2018-05-26T02:58:16.578Z,18.90
2018-05-26T03:00:45.127Z,18.90
2018-05-26T03:03:13.076Z,18.90
2018-05-26T03:05:46.507Z,18.90
2018-05-26T03:08:19.650Z,18.90
2018-05-26T03:10:52.863Z,18.90
2018-05-26T03:13:26.980Z,18.80
2018-05-26T03:16:00.141Z,18.80
2018-05-26T03:18:27.724Z,18.80
2018-05-26T03:20:55.312Z,18.80
2018-05-26T03:23:22.913Z,18.70
2018-05-26T03:25:50.502Z,18.80
2018-05-26T03:28:18.112Z,18.80
2018-05-26T03:30:45.783Z,18.80
2018-05-26T03:33:13.390Z,18.80
2018-05-26T03:35:41.014Z,18.80
2018-05-26T03:38:08.602Z,18.70
2018-05-26T03:40:36.168Z,18.70
2018-05-26T03:43:03.797Z,18.70
2018-05-26T03:45:31.393Z,18.70
2018-05-26T03:47:58.968Z,18.70
2018-05-26T03:50:26.553Z,18.80
2018-05-26T03:52:54.162Z,18.80
2018-05-26T03:55:42.368Z,18.80
2018-05-26T03:58:21.799Z,18.80
2018-05-26T04:00:49.351Z,18.90
2018-05-26T04:03:17.783Z,19.00
2018-05-26T04:05:45.449Z,19.00
2018-05-26T04:08:13.068Z,19.00
2018-05-26T04:10:40.651Z,19.10
2018-05-26T04:13:09.128Z,19.10
2018-05-26T04:15:36.792Z,19.10
2018-05-26T04:18:04.390Z,19.20
2018-05-26T04:20:31.990Z,19.20
2018-05-26T04:23:00.351Z,19.40
2018-05-26T04:25:27.948Z,19.30
2018-05-26T04:27:55.537Z,19.30
2018-05-26T04:30:23.129Z,19.40
2018-05-26T04:32:50.716Z,19.40
2018-05-26T04:35:18.370Z,19.50
2018-05-26T04:37:45.939Z,19.50
2018-05-26T04:40:14.308Z,19.60
2018-05-26T04:42:41.922Z,19.60
2018-05-26T04:45:09.527Z,19.60
2018-05-26T04:47:37.223Z,19.70
2018-05-26T04:50:04.825Z,19.80
2018-05-26T04:52:32.420Z,20.00
2018-05-26T04:55:00.046Z,20.20
2018-05-26T04:57:27.664Z,20.40
2018-05-26T04:59:55.243Z,20.60
2018-05-26T05:02:22.863Z,20.80
2018-05-26T05:04:51.207Z,21.30
2018-05-26T05:07:18.818Z,21.30
2018-05-26T05:09:46.542Z,21.60
2018-05-26T05:12:14.944Z,21.90
2018-05-26T05:14:42.510Z,22.20
2018-05-26T05:17:10.939Z,22.60
2018-05-26T05:19:38.604Z,22.60
2018-05-26T05:22:06.343Z,22.70
2018-05-26T05:24:33.977Z,22.80
2018-05-26T05:27:01.598Z,22.80
2018-05-26T05:29:29.205Z,22.80
2018-05-26T05:31:57.575Z,23.20
2018-05-26T05:34:25.920Z,23.30
2018-05-26T05:36:53.506Z,23.30
2018-05-26T05:39:21.868Z,23.40
2018-05-26T05:41:49.419Z,23.40
2018-05-26T05:44:17.010Z,23.60
2018-05-26T05:46:45.381Z,24.10
2018-05-26T05:49:13.714Z,24.40
2018-05-26T05:51:41.377Z,24.40
2018-05-26T05:54:08.959Z,24.80
2018-05-26T05:56:36.548Z,25.20
2018-05-26T05:59:05.151Z,25.70
2018-05-26T06:01:32.536Z,25.70
2018-05-26T06:04:00.166Z,26.00
2018-05-26T06:06:27.799Z,26.10
2018-05-26T06:08:55.390Z,26.30
2018-05-26T06:11:23.021Z,26.30
2018-05-26T06:13:50.595Z,26.30
2018-05-26T06:16:18.296Z,26.30
2018-05-26T06:18:45.950Z,26.30
2018-05-26T06:21:13.522Z,26.50
2018-05-26T06:23:41.083Z,26.50
2018-05-26T06:26:08.664Z,26.50
2018-05-26T06:28:36.270Z,26.60
2018-05-26T06:31:04.618Z,26.80
2018-05-26T06:33:32.241Z,26.70
2018-05-26T06:35:59.902Z,26.90
2018-05-26T06:38:27.431Z,26.90
2018-05-26T06:40:55.826Z,27.30
2018-05-26T06:43:23.442Z,27.30
2018-05-26T06:45:51.073Z,27.30
2018-05-26T06:48:18.665Z,27.40
2018-05-26T06:50:46.581Z,26.70
2018-05-26T06:53:14.911Z,25.80
2018-05-26T06:55:42.524Z,25.80
2018-05-26T06:58:10.114Z,25.40
2018-05-26T07:00:37.711Z,25.10
2018-05-26T07:03:06.081Z,24.60
2018-05-26T07:05:33.673Z,24.60
2018-05-26T07:08:01.316Z,24.50
2018-05-26T07:10:29.653Z,24.40
2018-05-26T07:12:57.221Z,24.40
2018-05-26T07:15:24.841Z,24.40
2018-05-26T07:17:52.478Z,24.10
2018-05-26T07:20:20.060Z,24.20
2018-05-26T07:22:47.710Z,24.40
2018-05-26T07:25:15.335Z,24.50
2018-05-26T07:27:42.958Z,24.40
2018-05-26T07:30:10.553Z,24.50
2018-05-26T07:32:38.223Z,24.50
2018-05-26T07:35:05.835Z,24.50
2018-05-26T07:37:33.493Z,24.50
2018-05-26T07:40:01.094Z,24.50
2018-05-26T07:42:28.660Z,24.50
2018-05-26T07:44:56.320Z,24.60
2018-05-26T07:47:23.944Z,24.60
2018-05-26T07:49:51.552Z,24.70
2018-05-26T07:52:19.168Z,24.90
2018-05-26T07:54:46.798Z,24.80
2018-05-26T07:57:15.200Z,24.80
2018-05-26T07:59:42.765Z,24.80
2018-05-26T08:02:10.349Z,24.90
2018-05-26T08:04:37.906Z,25.10
2018-05-26T08:07:05.520Z,25.10
2018-05-26T08:09:33.149Z,25.20
2018-05-26T08:12:00.776Z,25.30
2018-05-26T08:14:28.358Z,25.30
2018-05-26T08:16:55.973Z,25.40
2018-05-26T08:19:23.605Z,25.60
2018-05-26T08:21:51.220Z,25.60
2018-05-26T08:24:18.855Z,25.60
2018-05-26T08:26:46.526Z,25.60
2018-05-26T08:29:15.052Z,25.60
2018-05-26T08:31:42.670Z,25.70
2018-05-26T08:34:10.256Z,25.70
2018-05-26T08:39:11.828Z,25.80
2018-05-26T08:41:39.381Z,25.70
2018-05-26T08:44:06.995Z,25.70
2018-05-26T08:46:35.375Z,25.90
2018-05-26T08:49:04.361Z,26.00
2018-05-26T08:51:32.768Z,26.00
2018-05-26T08:54:00.390Z,26.00
2018-05-26T08:56:29.511Z,26.10
2018-05-26T08:58:57.924Z,26.30
2018-05-26T09:01:25.504Z,26.30
2018-05-26T09:03:53.076Z,26.30
2018-05-26T09:06:20.723Z,26.30
2018-05-26T09:08:48.287Z,26.50
2018-05-26T09:11:15.938Z,26.60
2018-05-26T09:13:43.546Z,26.60
2018-05-26T09:16:11.921Z,26.40
2018-05-26T09:18:39.590Z,26.30
2018-05-26T09:21:07.930Z,26.40
2018-05-26T09:23:35.489Z,26.40
2018-05-26T09:26:03.079Z,26.40
2018-05-26T09:28:30.648Z,26.50
2018-05-26T09:30:59.024Z,26.70
2018-05-26T09:33:27.363Z,26.80
2018-05-26T09:35:55.007Z,26.80
2018-05-26T09:38:22.649Z,27.00
2018-05-26T09:40:50.270Z,27.10
2018-05-26T09:43:17.865Z,27.20
2018-05-26T09:45:46.793Z,27.00
2018-05-26T09:48:14.397Z,27.00
2018-05-26T09:50:42.806Z,27.10
2018-05-26T09:53:10.409Z,27.00
2018-05-26T09:55:37.992Z,27.00
2018-05-26T09:58:05.597Z,27.10
2018-05-26T10:00:33.164Z,27.20
2018-05-26T10:03:00.765Z,27.30
2018-05-26T10:05:28.362Z,27.20
2018-05-26T10:07:55.963Z,27.10
2018-05-26T10:10:23.558Z,27.10
2018-05-26T10:12:51.134Z,27.20
2018-05-26T10:15:19.566Z,27.40
2018-05-26T10:17:47.153Z,27.40
2018-05-26T10:22:48.668Z,27.50
2018-05-26T10:25:16.288Z,27.60
2018-05-26T10:27:43.878Z,27.70
2018-05-26T10:30:11.541Z,27.70
2018-05-26T10:32:39.216Z,27.70
2018-05-26T10:35:06.814Z,27.70
2018-05-26T10:37:34.390Z,27.80
2018-05-26T10:40:01.999Z,27.80
2018-05-26T10:42:29.629Z,27.80
2018-05-26T10:44:57.979Z,27.80
2018-05-26T10:47:25.538Z,27.80
2018-05-26T10:49:53.193Z,27.80
2018-05-26T10:52:20.834Z,27.90
2018-05-26T10:54:48.431Z,27.70
2018-05-26T10:57:16.058Z,27.60
2018-05-26T10:59:43.656Z,27.70
2018-05-26T11:02:11.241Z,27.70
2018-05-26T11:04:39.614Z,27.90
2018-05-26T11:07:08.049Z,27.90
2018-05-26T11:09:35.697Z,27.90
2018-05-26T11:12:03.292Z,28.00
2018-05-26T11:14:30.876Z,28.00
2018-05-26T11:16:59.256Z,28.20
2018-05-26T11:19:26.856Z,28.20
2018-05-26T11:21:54.468Z,28.30
2018-05-26T11:24:22.862Z,28.40
2018-05-26T11:26:50.463Z,28.30
2018-05-26T11:29:18.040Z,28.40
2018-05-26T11:31:45.632Z,28.30
2018-05-26T11:34:13.261Z,28.30
2018-05-26T11:36:40.931Z,28.40
2018-05-26T11:39:09.180Z,28.40
2018-05-26T11:41:37.033Z,28.40
2018-05-26T11:44:04.674Z,28.30
2018-05-26T11:46:32.238Z,28.30
2018-05-26T11:48:59.827Z,28.20
2018-05-26T11:51:27.444Z,28.20
2018-05-26T11:53:55.815Z,28.40
2018-05-26T11:56:23.423Z,28.40
2018-05-26T11:58:51.026Z,28.50
2018-05-26T12:01:18.700Z,28.60
2018-05-26T12:03:47.071Z,28.40
2018-05-26T12:06:14.671Z,28.40
2018-05-26T12:08:42.385Z,28.40
2018-05-26T12:11:09.984Z,28.30
2018-05-26T12:13:37.584Z,28.40
2018-05-26T12:16:05.155Z,28.50
2018-05-26T12:18:32.832Z,28.60
2018-05-26T12:21:00.458Z,28.70
2018-05-26T12:23:28.057Z,28.80
2018-05-26T12:25:55.798Z,28.80
2018-05-26T12:28:23.436Z,28.80
2018-05-26T12:30:51.112Z,29.00
2018-05-26T12:33:18.737Z,29.00
2018-05-26T12:35:46.382Z,29.00
2018-05-26T12:38:14.716Z,29.00
2018-05-26T12:40:43.132Z,29.10
2018-05-26T12:43:10.728Z,29.00
2018-05-26T12:45:38.348Z,29.10
2018-05-26T12:48:06.737Z,29.00
2018-05-26T12:50:34.405Z,28.90
2018-05-26T12:53:03.663Z,29.00
2018-05-26T12:55:31.267Z,28.90
2018-05-26T12:57:59.744Z,29.00
2018-05-26T13:00:28.072Z,28.80
2018-05-26T13:02:55.634Z,28.80
2018-05-26T13:05:23.223Z,29.00
2018-05-26T13:07:50.796Z,29.00
2018-05-26T13:10:18.411Z,29.00
2018-05-26T13:12:46.674Z,28.90
2018-05-26T13:15:14.275Z,29.00
2018-05-26T13:17:41.886Z,28.90
2018-05-26T13:20:09.493Z,28.90
2018-05-26T13:22:37.131Z,29.10
2018-05-26T13:25:04.687Z,29.00
2018-05-26T13:27:32.253Z,29.00
2018-05-26T13:29:59.852Z,29.00
2018-05-26T13:32:27.438Z,29.10
2018-05-26T13:34:55.034Z,29.10
2018-05-26T13:37:23.502Z,29.30
2018-05-26T13:39:51.122Z,29.30
2018-05-26T13:42:19.494Z,29.30
2018-05-26T13:44:47.858Z,29.30
2018-05-26T13:47:15.467Z,29.30
2018-05-26T13:49:43.059Z,29.20
2018-05-26T13:52:10.720Z,29.00
2018-05-26T13:54:38.425Z,28.90
2018-05-26T13:57:06.651Z,29.10
2018-05-26T13:59:34.273Z,29.00
2018-05-26T14:02:01.888Z,29.20
2018-05-26T14:04:29.497Z,29.20
2018-05-26T14:06:57.856Z,29.30
2018-05-26T14:09:25.434Z,29.20
2018-05-26T14:11:53.100Z,29.30
2018-05-26T14:14:22.193Z,29.30
2018-05-26T14:16:50.549Z,29.20
2018-05-26T14:19:18.204Z,29.10
2018-05-26T14:21:46.341Z,29.30
2018-05-26T14:24:13.937Z,29.30
2018-05-26T14:26:41.555Z,29.30
2018-05-26T14:29:09.216Z,29.30
2018-05-26T14:31:36.960Z,29.30
2018-05-26T14:34:04.619Z,29.40
2018-05-26T14:36:32.992Z,29.50
2018-05-26T14:39:01.298Z,29.60
2018-05-26T14:41:28.863Z,29.60
2018-05-26T14:43:56.504Z,29.60
2018-05-26T14:46:24.063Z,29.60
2018-05-26T14:48:52.474Z,29.50
2018-05-26T14:51:20.062Z,29.60
2018-05-26T14:53:47.689Z,29.50
2018-05-26T14:56:16.105Z,29.60
2018-05-26T14:58:43.735Z,29.70
2018-05-26T15:01:11.355Z,29.70
2018-05-26T15:03:38.931Z,29.70
2018-05-26T15:06:06.537Z,29.70
2018-05-26T15:08:34.131Z,29.60
2018-05-26T15:11:01.736Z,29.60
2018-05-26T15:13:29.387Z,29.60
2018-05-26T15:15:56.970Z,29.70
2018-05-26T15:18:24.665Z,29.60
2018-05-26T15:20:52.296Z,29.70
2018-05-26T15:23:19.932Z,29.60
2018-05-26T15:25:47.631Z,29.40
2018-05-26T15:28:15.265Z,29.30
2018-05-26T15:30:42.827Z,29.30
2018-05-26T15:33:10.459Z,29.40
2018-05-26T15:35:38.536Z,29.50
2018-05-26T15:38:06.195Z,29.50
2018-05-26T15:40:34.570Z,29.50
2018-05-26T15:43:02.162Z,29.60
2018-05-26T15:45:29.767Z,29.70
2018-05-26T15:47:57.363Z,29.90
2018-05-26T15:50:24.980Z,30.00
2018-05-26T15:52:52.572Z,29.90
2018-05-26T15:55:20.242Z,29.80
2018-05-26T15:57:48.588Z,29.80
2018-05-26T16:00:16.163Z,29.70
2018-05-26T16:02:44.765Z,29.60
2018-05-26T16:05:12.482Z,29.60
2018-05-26T16:07:40.080Z,29.60
2018-05-26T16:10:07.802Z,29.50
2018-05-26T16:12:35.922Z,29.30
2018-05-26T16:15:03.501Z,29.30
2018-05-26T16:17:31.096Z,29.30
2018-05-26T16:19:59.521Z,29.40
2018-05-26T16:22:27.889Z,29.40
2018-05-26T16:24:56.236Z,29.40
2018-05-26T16:27:24.104Z,29.40
2018-05-26T16:29:51.709Z,29.60
2018-05-26T16:32:19.266Z,29.70
2018-05-26T16:34:47.639Z,29.40
2018-05-26T16:37:15.213Z,29.40
2018-05-26T16:39:42.815Z,29.40
2018-05-26T16:42:10.670Z,29.30
2018-05-26T16:44:38.385Z,29.30
2018-05-26T16:47:06.752Z,29.00
2018-05-26T16:49:34.352Z,29.00
2018-05-26T16:52:01.954Z,28.80
2018-05-26T16:54:29.580Z,28.70
2018-05-26T16:56:57.207Z,28.70
2018-05-26T16:59:24.795Z,28.70
2018-05-26T17:01:52.452Z,28.90
2018-05-26T17:04:20.044Z,29.80
2018-05-26T17:06:48.783Z,30.90
2018-05-26T17:09:17.156Z,33.20
2018-05-26T17:11:44.865Z,33.10
2018-05-26T17:14:12.506Z,33.90
2018-05-26T17:16:40.143Z,34.50
2018-05-26T17:19:08.505Z,35.70
2018-05-26T17:21:36.472Z,35.60
2018-05-26T17:24:04.093Z,35.90
2018-05-26T17:26:31.742Z,35.40
2018-05-26T17:28:59.314Z,35.50
2018-05-26T17:31:26.968Z,35.50
2018-05-26T17:33:54.626Z,35.50
2018-05-26T17:36:23.100Z,35.80
2018-05-26T17:38:50.657Z,35.20
2018-05-26T17:41:18.232Z,35.60
2018-05-26T17:43:45.828Z,35.80
2018-05-26T17:46:14.061Z,36.00
2018-05-26T17:48:41.668Z,36.10
2018-05-26T17:51:09.283Z,35.70
2018-05-26T17:53:37.711Z,34.80
2018-05-26T17:56:05.470Z,34.80
2018-05-26T17:58:33.067Z,34.80
2018-05-26T18:01:00.703Z,34.50
2018-05-26T18:03:28.303Z,33.30
2018-05-26T18:05:55.939Z,32.20
2018-05-26T18:08:24.335Z,30.60
2018-05-26T18:10:52.945Z,30.00
2018-05-26T18:13:20.519Z,29.90
2018-05-26T18:15:49.076Z,29.50
2018-05-26T18:18:16.729Z,29.10
2018-05-26T18:20:44.320Z,28.60
2018-05-26T18:23:11.880Z,28.20
2018-05-26T18:25:39.470Z,28.00
2018-05-26T18:28:07.997Z,27.80
2018-05-26T18:30:35.631Z,27.60
2018-05-26T18:33:03.976Z,27.10
2018-05-26T18:35:31.548Z,27.10
2018-05-26T18:37:59.153Z,27.10
2018-05-26T18:40:26.725Z,26.90
2018-05-26T18:42:54.357Z,26.90
2018-05-26T18:45:21.920Z,26.80
2018-05-26T18:47:49.546Z,26.70
2018-05-26T18:50:17.172Z,26.60
2018-05-26T18:52:44.765Z,26.50
2018-05-26T18:55:12.396Z,26.40
2018-05-26T18:57:40.014Z,26.30
2018-05-26T19:00:08.412Z,26.20
2018-05-26T19:02:36.027Z,26.20
2018-05-26T19:05:03.800Z,26.10
2018-05-26T19:07:31.396Z,26.00
2018-05-26T19:10:00.010Z,25.90
2018-05-26T19:12:27.612Z,25.90
2018-05-26T19:14:55.237Z,25.90
2018-05-26T19:17:22.844Z,25.80
2018-05-26T19:19:50.474Z,25.70
2018-05-26T19:22:18.217Z,25.60
2018-05-26T19:24:46.182Z,25.60
2018-05-26T19:27:13.782Z,25.50
2018-05-26T19:29:41.475Z,25.40
2018-05-26T19:32:09.839Z,25.30
2018-05-26T19:34:37.501Z,25.30
2018-05-26T19:37:05.137Z,25.20
2018-05-26T19:39:32.695Z,25.10
2018-05-26T19:42:00.295Z,25.10
2018-05-26T19:44:28.695Z,24.90
2018-05-26T19:46:56.330Z,24.90
2018-05-26T19:49:24.700Z,24.80
2018-05-26T19:51:52.411Z,24.70
2018-05-26T19:54:20.033Z,24.70
2018-05-26T19:56:48.451Z,24.60
2018-05-26T19:59:16.035Z,24.60
2018-05-26T20:01:43.600Z,24.60
2018-05-26T20:04:11.239Z,24.50
2018-05-26T20:06:38.871Z,24.40
2018-05-26T20:09:06.502Z,24.40
2018-05-26T20:11:34.181Z,24.30
2018-05-26T20:14:02.585Z,24.20
2018-05-26T20:16:30.174Z,24.20
2018-05-26T20:18:57.731Z,24.10
2018-05-26T20:21:25.450Z,24.10
2018-05-26T20:23:53.842Z,24.00
2018-05-26T20:26:22.456Z,23.90
2018-05-26T20:28:50.051Z,23.90
2018-05-26T20:31:17.752Z,23.80
2018-05-26T20:33:45.474Z,23.80
2018-05-26T20:36:13.164Z,23.80
2018-05-26T20:38:42.400Z,23.60
2018-05-26T20:41:10.047Z,23.60
2018-05-26T20:43:37.683Z,23.60
2018-05-26T20:46:05.343Z,23.60
2018-05-26T20:48:32.940Z,23.50
2018-05-26T20:51:00.518Z,23.50
2018-05-26T20:53:28.182Z,23.40
2018-05-26T20:55:55.772Z,23.40
2018-05-26T20:58:23.378Z,23.30
2018-05-26T21:00:51.023Z,23.40
2018-05-26T21:03:18.677Z,23.30
2018-05-26T21:05:46.359Z,23.20
2018-05-26T21:08:14.878Z,23.10
2018-05-26T21:10:42.440Z,23.10
2018-05-26T21:13:10.052Z,23.10
2018-05-26T21:15:38.431Z,23.00
2018-05-26T21:18:06.818Z,22.90
2018-05-26T21:20:34.366Z,22.90
2018-05-26T21:23:02.792Z,22.80
2018-05-26T21:25:30.499Z,22.70
2018-05-26T21:27:58.818Z,22.70
2018-05-26T21:30:26.427Z,22.70
2018-05-26T21:32:54.033Z,22.70
2018-05-26T21:35:21.674Z,22.60
2018-05-26T21:37:49.273Z,22.50
2018-05-26T21:40:16.878Z,22.50
2018-05-26T21:42:45.239Z,22.40
2018-05-26T21:45:12.842Z,22.40
2018-05-26T21:47:40.471Z,22.30
2018-05-26T21:50:08.075Z,22.30
2018-05-26T21:52:35.703Z,22.30
2018-05-26T21:55:03.342Z,22.30
2018-05-26T21:57:30.984Z,22.20
2018-05-26T21:59:58.548Z,22.20
2018-05-26T22:02:26.172Z,22.20
2018-05-26T22:04:53.767Z,22.20
2018-05-26T22:07:21.344Z,22.10
2018-05-26T22:09:49.008Z,22.10
2018-05-26T22:12:16.620Z,22.10
2018-05-26T22:14:44.249Z,22.10
2018-05-26T22:17:11.905Z,22.00
2018-05-26T22:19:39.489Z,22.00
2018-05-26T22:22:07.859Z,21.90
2018-05-26T22:24:35.535Z,21.90
2018-05-26T22:27:03.108Z,21.90
2018-05-26T22:29:30.706Z,21.80
2018-05-26T22:31:58.415Z,21.80
2018-05-26T22:34:26.037Z,21.80
2018-05-26T22:36:53.673Z,21.70
2018-05-26T22:39:21.245Z,21.70
2018-05-26T22:41:48.859Z,21.60
2018-05-26T22:44:16.463Z,21.50
2018-05-26T22:46:44.084Z,21.50
2018-05-26T22:49:12.461Z,21.40
2018-05-26T22:51:40.088Z,21.40
2018-05-26T22:54:07.644Z,21.40
2018-05-26T22:56:35.269Z,21.40
2018-05-26T22:59:02.885Z,21.30
2018-05-26T23:01:31.286Z,21.30
2018-05-26T23:03:58.846Z,21.30
2018-05-26T23:06:26.451Z,21.20
2018-05-26T23:08:54.137Z,21.30
2018-05-26T23:11:21.738Z,21.20
2018-05-26T23:13:49.320Z,21.20
2018-05-26T23:16:16.945Z,21.10
2018-05-26T23:18:45.287Z,21.10
2018-05-26T23:21:12.912Z,21.10
2018-05-26T23:23:40.510Z,21.00
2018-05-26T23:26:08.132Z,21.00
2018-05-26T23:28:35.722Z,21.00
2018-05-26T23:31:03.319Z,20.90
2018-05-26T23:33:31.760Z,20.90
2018-05-26T23:35:59.358Z,20.90
2018-05-26T23:38:27.694Z,20.90
2018-05-26T23:40:55.299Z,20.90
2018-05-26T23:43:23.671Z,20.80
2018-05-26T23:45:51.351Z,20.80
2018-05-26T23:48:18.936Z,20.80
2018-05-26T23:50:47.095Z,20.80
2018-05-26T23:53:14.725Z,20.80
2018-05-26T23:55:42.314Z,20.80
2018-05-26T23:58:09.938Z,20.70
